sensor_id;sensor_type;location;lat;lon;timestamp;P1;durP1;ratioP1;P2;durP2;ratioP2
8536;SDS011;4306;50.210;10.628;2023-04-03T00:02:00;10.02;;;3.83;;
8536;SDS011;4306;50.210;10.628;2023-04-03T00:04:27;5.72;;;3.60;;
8536;SDS011;4306;50.210;10.628;2023-04-03T00:06:56;6.07;;;3.17;;
8536;SDS011;4306;50.210;10.628;2023-04-03T00:09:23;7.65;;;3.50;;
8536;SDS011;4306;50.210;10.628;2023-04-03T00:11:50;7.28;;;3.45;;
8536;SDS011;4306;50.210;10.628;2023-04-03T00:14:17;6.90;;;2.90;;
8536;SDS011;4306;50.210;10.628;2023-04-03T00:16:43;4.30;;;2.60;;
8536;SDS011;4306;50.210;10.628;2023-04-03T00:19:10;5.40;;;2.47;;
8536;SDS011;4306;50.210;10.628;2023-04-03T00:21:37;4.63;;;2.60;;
8536;SDS011;4306;50.210;10.628;2023-04-03T00:24:06;3.53;;;2.33;;
8536;SDS011;4306;50.210;10.628;2023-04-03T00:26:33;4.15;;;1.95;;
8536;SDS011;4306;50.210;10.628;2023-04-03T00:29:00;3.78;;;2.20;;
8536;SDS011;4306;50.210;10.628;2023-04-03T00:31:27;3.70;;;1.87;;
8536;SDS011;4306;50.210;10.628;2023-04-03T00:33:54;3.27;;;2.30;;
8536;SDS011;4306;50.210;10.628;2023-04-03T00:36:20;5.77;;;1.83;;
8536;SDS011;4306;50.210;10.628;2023-04-03T00:38:47;4.37;;;1.93;;
8536;SDS011;4306;50.210;10.628;2023-04-03T00:41:15;3.83;;;2.17;;
8536;SDS011;4306;50.210;10.628;2023-04-03T00:43:42;3.07;;;2.03;;
8536;SDS011;4306;50.210;10.628;2023-04-03T00:46:09;5.00;;;2.30;;
8536;SDS011;4306;50.210;10.628;2023-04-03T00:48:37;5.23;;;2.50;;
8536;SDS011;4306;50.210;10.628;2023-04-03T00:51:08;4.83;;;2.40;;
8536;SDS011;4306;50.210;10.628;2023-04-03T00:53:39;5.72;;;2.40;;
8536;SDS011;4306;50.210;10.628;2023-04-03T00:56:10;4.55;;;2.63;;
8536;SDS011;4306;50.210;10.628;2023-04-03T00:58:42;5.10;;;2.33;;
8536;SDS011;4306;50.210;10.628;2023-04-03T01:01:14;4.50;;;2.40;;
8536;SDS011;4306;50.210;10.628;2023-04-03T01:03:44;9.27;;;3.00;;
8536;SDS011;4306;50.210;10.628;2023-04-03T01:06:11;4.83;;;2.47;;
8536;SDS011;4306;50.210;10.628;2023-04-03T01:08:41;3.85;;;2.70;;
8536;SDS011;4306;50.210;10.628;2023-04-03T01:11:08;3.67;;;2.83;;
8536;SDS011;4306;50.210;10.628;2023-04-03T01:13:35;4.50;;;2.80;;
8536;SDS011;4306;50.210;10.628;2023-04-03T01:16:04;4.67;;;2.67;;
8536;SDS011;4306;50.210;10.628;2023-04-03T01:18:31;8.77;;;2.90;;
8536;SDS011;4306;50.210;10.628;2023-04-03T01:21:10;5.78;;;2.90;;
8536;SDS011;4306;50.210;10.628;2023-04-03T01:24:09;6.28;;;3.00;;
8536;SDS011;4306;50.210;10.628;2023-04-03T01:26:46;3.92;;;2.70;;
8536;SDS011;4306;50.210;10.628;2023-04-03T01:29:14;5.60;;;3.30;;
8536;SDS011;4306;50.210;10.628;2023-04-03T01:31:45;4.90;;;2.60;;
8536;SDS011;4306;50.210;10.628;2023-04-03T01:34:16;5.07;;;2.90;;
8536;SDS011;4306;50.210;10.628;2023-04-03T01:36:43;5.77;;;2.50;;
8536;SDS011;4306;50.210;10.628;2023-04-03T01:39:10;4.63;;;2.47;;
8536;SDS011;4306;50.210;10.628;2023-04-03T01:41:37;6.27;;;2.70;;
8536;SDS011;4306;50.210;10.628;2023-04-03T01:44:04;3.83;;;2.50;;
8536;SDS011;4306;50.210;10.628;2023-04-03T01:46:31;5.63;;;3.05;;
8536;SDS011;4306;50.210;10.628;2023-04-03T01:48:59;6.20;;;2.37;;
8536;SDS011;4306;50.210;10.628;2023-04-03T01:51:26;4.80;;;2.47;;
8536;SDS011;4306;50.210;10.628;2023-04-03T01:53:53;3.93;;;2.60;;
8536;SDS011;4306;50.210;10.628;2023-04-03T01:56:20;5.93;;;2.57;;
8536;SDS011;4306;50.210;10.628;2023-04-03T01:58:47;7.27;;;2.63;;
8536;SDS011;4306;50.210;10.628;2023-04-03T02:01:14;5.63;;;2.80;;
8536;SDS011;4306;50.210;10.628;2023-04-03T02:03:41;6.33;;;2.50;;
8536;SDS011;4306;50.210;10.628;2023-04-03T02:06:09;6.93;;;2.27;;
8536;SDS011;4306;50.210;10.628;2023-04-03T02:08:36;4.40;;;2.20;;
8536;SDS011;4306;50.210;10.628;2023-04-03T02:11:03;5.37;;;2.37;;
8536;SDS011;4306;50.210;10.628;2023-04-03T02:13:30;6.07;;;2.37;;
8536;SDS011;4306;50.210;10.628;2023-04-03T02:15:57;5.77;;;2.43;;
8536;SDS011;4306;50.210;10.628;2023-04-03T02:18:24;6.40;;;2.77;;
8536;SDS011;4306;50.210;10.628;2023-04-03T02:20:51;3.97;;;2.10;;
8536;SDS011;4306;50.210;10.628;2023-04-03T02:23:19;5.83;;;2.27;;
8536;SDS011;4306;50.210;10.628;2023-04-03T02:25:46;4.87;;;2.37;;
8536;SDS011;4306;50.210;10.628;2023-04-03T02:28:14;6.93;;;2.60;;
8536;SDS011;4306;50.210;10.628;2023-04-03T02:30:40;5.10;;;2.20;;
8536;SDS011;4306;50.210;10.628;2023-04-03T02:33:07;7.47;;;2.60;;
8536;SDS011;4306;50.210;10.628;2023-04-03T02:35:34;4.38;;;2.40;;
8536;SDS011;4306;50.210;10.628;2023-04-03T02:38:01;5.60;;;2.30;;
8536;SDS011;4306;50.210;10.628;2023-04-03T02:40:30;7.20;;;2.60;;
8536;SDS011;4306;50.210;10.628;2023-04-03T02:42:57;3.90;;;2.40;;
8536;SDS011;4306;50.210;10.628;2023-04-03T02:45:23;6.63;;;2.40;;
8536;SDS011;4306;50.210;10.628;2023-04-03T02:47:51;5.43;;;2.70;;
8536;SDS011;4306;50.210;10.628;2023-04-03T02:50:17;5.60;;;2.23;;
8536;SDS011;4306;50.210;10.628;2023-04-03T02:52:44;4.27;;;2.70;;
8536;SDS011;4306;50.210;10.628;2023-04-03T02:55:13;5.03;;;2.33;;
8536;SDS011;4306;50.210;10.628;2023-04-03T02:57:42;5.87;;;3.10;;
8536;SDS011;4306;50.210;10.628;2023-04-03T03:00:09;6.60;;;2.50;;
8536;SDS011;4306;50.210;10.628;2023-04-03T03:02:37;6.80;;;2.77;;
8536;SDS011;4306;50.210;10.628;2023-04-03T03:05:04;4.60;;;3.40;;
8536;SDS011;4306;50.210;10.628;2023-04-03T03:07:31;4.60;;;2.70;;
8536;SDS011;4306;50.210;10.628;2023-04-03T03:09:58;6.40;;;3.00;;
8536;SDS011;4306;50.210;10.628;2023-04-03T03:12:25;5.07;;;2.87;;
8536;SDS011;4306;50.210;10.628;2023-04-03T03:14:53;5.87;;;2.77;;
8536;SDS011;4306;50.210;10.628;2023-04-03T03:17:20;6.70;;;2.87;;
8536;SDS011;4306;50.210;10.628;2023-04-03T03:19:47;4.20;;;2.63;;
8536;SDS011;4306;50.210;10.628;2023-04-03T03:22:14;7.73;;;3.27;;
8536;SDS011;4306;50.210;10.628;2023-04-03T03:24:42;6.10;;;3.50;;
8536;SDS011;4306;50.210;10.628;2023-04-03T03:27:08;4.97;;;2.80;;
8536;SDS011;4306;50.210;10.628;2023-04-03T03:29:35;8.47;;;2.97;;
8536;SDS011;4306;50.210;10.628;2023-04-03T03:32:04;6.50;;;3.03;;
8536;SDS011;4306;50.210;10.628;2023-04-03T03:34:30;9.37;;;3.13;;
8536;SDS011;4306;50.210;10.628;2023-04-03T03:36:57;4.83;;;2.93;;
8536;SDS011;4306;50.210;10.628;2023-04-03T03:39:24;5.80;;;3.27;;
8536;SDS011;4306;50.210;10.628;2023-04-03T03:41:52;6.07;;;2.63;;
8536;SDS011;4306;50.210;10.628;2023-04-03T03:44:19;7.07;;;3.03;;
8536;SDS011;4306;50.210;10.628;2023-04-03T03:46:46;6.80;;;2.97;;
8536;SDS011;4306;50.210;10.628;2023-04-03T03:49:14;5.90;;;2.40;;
8536;SDS011;4306;50.210;10.628;2023-04-03T03:51:41;5.80;;;2.67;;
8536;SDS011;4306;50.210;10.628;2023-04-03T03:54:08;5.20;;;2.40;;
8536;SDS011;4306;50.210;10.628;2023-04-03T03:56:35;7.63;;;2.73;;
8536;SDS011;4306;50.210;10.628;2023-04-03T03:59:02;4.80;;;3.00;;
8536;SDS011;4306;50.210;10.628;2023-04-03T04:01:29;6.23;;;2.83;;
8536;SDS011;4306;50.210;10.628;2023-04-03T04:03:56;5.27;;;2.57;;
8536;SDS011;4306;50.210;10.628;2023-04-03T04:06:24;3.27;;;2.47;;
8536;SDS011;4306;50.210;10.628;2023-04-03T04:08:51;4.23;;;2.37;;
8536;SDS011;4306;50.210;10.628;2023-04-03T04:11:18;5.17;;;2.70;;
8536;SDS011;4306;50.210;10.628;2023-04-03T04:13:46;5.27;;;2.63;;
8536;SDS011;4306;50.210;10.628;2023-04-03T04:16:13;4.00;;;2.50;;
8536;SDS011;4306;50.210;10.628;2023-04-03T04:18:40;4.80;;;2.70;;
8536;SDS011;4306;50.210;10.628;2023-04-03T04:21:07;4.77;;;2.70;;
8536;SDS011;4306;50.210;10.628;2023-04-03T04:23:35;6.67;;;2.90;;
8536;SDS011;4306;50.210;10.628;2023-04-03T04:26:02;4.90;;;2.50;;
8536;SDS011;4306;50.210;10.628;2023-04-03T04:28:29;5.50;;;2.70;;
8536;SDS011;4306;50.210;10.628;2023-04-03T04:30:56;5.80;;;3.10;;
8536;SDS011;4306;50.210;10.628;2023-04-03T04:33:23;4.80;;;2.93;;
8536;SDS011;4306;50.210;10.628;2023-04-03T04:35:50;8.70;;;3.83;;
8536;SDS011;4306;50.210;10.628;2023-04-03T04:38:17;9.83;;;5.40;;
8536;SDS011;4306;50.210;10.628;2023-04-03T04:40:46;7.97;;;4.60;;
8536;SDS011;4306;50.210;10.628;2023-04-03T04:43:13;7.63;;;6.00;;
8536;SDS011;4306;50.210;10.628;2023-04-03T04:45:40;7.30;;;4.87;;
8536;SDS011;4306;50.210;10.628;2023-04-03T04:48:08;5.53;;;3.70;;
8536;SDS011;4306;50.210;10.628;2023-04-03T04:50:34;6.50;;;3.67;;
8536;SDS011;4306;50.210;10.628;2023-04-03T04:53:01;4.27;;;3.23;;
8536;SDS011;4306;50.210;10.628;2023-04-03T04:55:29;5.30;;;3.23;;
8536;SDS011;4306;50.210;10.628;2023-04-03T04:57:57;6.00;;;3.50;;
8536;SDS011;4306;50.210;10.628;2023-04-03T05:00:24;8.63;;;3.57;;
8536;SDS011;4306;50.210;10.628;2023-04-03T05:02:51;6.30;;;3.77;;
8536;SDS011;4306;50.210;10.628;2023-04-03T05:05:18;6.13;;;3.30;;
8536;SDS011;4306;50.210;10.628;2023-04-03T05:07:44;6.07;;;3.73;;
8536;SDS011;4306;50.210;10.628;2023-04-03T05:10:11;6.97;;;3.80;;
8536;SDS011;4306;50.210;10.628;2023-04-03T05:12:38;6.33;;;3.70;;
8536;SDS011;4306;50.210;10.628;2023-04-03T05:15:08;6.83;;;3.50;;
8536;SDS011;4306;50.210;10.628;2023-04-03T05:17:35;5.73;;;3.63;;
8536;SDS011;4306;50.210;10.628;2023-04-03T05:20:02;6.80;;;4.00;;
8536;SDS011;4306;50.210;10.628;2023-04-03T05:22:30;9.13;;;4.03;;
8536;SDS011;4306;50.210;10.628;2023-04-03T05:24:57;7.13;;;4.00;;
8536;SDS011;4306;50.210;10.628;2023-04-03T05:27:24;5.93;;;3.50;;
8536;SDS011;4306;50.210;10.628;2023-04-03T05:29:53;7.10;;;4.13;;
8536;SDS011;4306;50.210;10.628;2023-04-03T05:32:21;6.60;;;4.10;;
8536;SDS011;4306;50.210;10.628;2023-04-03T05:34:48;7.03;;;4.33;;
8536;SDS011;4306;50.210;10.628;2023-04-03T05:37:15;6.10;;;4.00;;
8536;SDS011;4306;50.210;10.628;2023-04-03T05:39:43;11.37;;;5.90;;
8536;SDS011;4306;50.210;10.628;2023-04-03T05:42:09;11.73;;;6.03;;
8536;SDS011;4306;50.210;10.628;2023-04-03T05:44:37;8.50;;;5.13;;
8536;SDS011;4306;50.210;10.628;2023-04-03T05:47:04;8.30;;;4.90;;
8536;SDS011;4306;50.210;10.628;2023-04-03T05:49:32;7.97;;;4.80;;
8536;SDS011;4306;50.210;10.628;2023-04-03T05:51:59;7.00;;;4.40;;
8536;SDS011;4306;50.210;10.628;2023-04-03T05:54:27;7.03;;;4.27;;
8536;SDS011;4306;50.210;10.628;2023-04-03T05:56:56;6.50;;;3.93;;
8536;SDS011;4306;50.210;10.628;2023-04-03T05:59:22;7.87;;;3.63;;
8536;SDS011;4306;50.210;10.628;2023-04-03T06:01:49;6.63;;;3.57;;
8536;SDS011;4306;50.210;10.628;2023-04-03T06:04:16;10.90;;;4.50;;
8536;SDS011;4306;50.210;10.628;2023-04-03T06:06:49;8.23;;;3.63;;
8536;SDS011;4306;50.210;10.628;2023-04-03T06:09:17;7.33;;;3.27;;
8536;SDS011;4306;50.210;10.628;2023-04-03T06:11:45;5.20;;;3.23;;
8536;SDS011;4306;50.210;10.628;2023-04-03T06:14:12;5.13;;;3.03;;
8536;SDS011;4306;50.210;10.628;2023-04-03T06:16:38;6.50;;;3.50;;
8536;SDS011;4306;50.210;10.628;2023-04-03T06:19:06;5.20;;;3.10;;
8536;SDS011;4306;50.210;10.628;2023-04-03T06:21:33;4.33;;;2.90;;
8536;SDS011;4306;50.210;10.628;2023-04-03T06:24:02;7.17;;;3.33;;
8536;SDS011;4306;50.210;10.628;2023-04-03T06:26:29;8.07;;;3.03;;
8536;SDS011;4306;50.210;10.628;2023-04-03T06:28:56;8.13;;;3.37;;
8536;SDS011;4306;50.210;10.628;2023-04-03T06:31:23;5.03;;;2.70;;
8536;SDS011;4306;50.210;10.628;2023-04-03T06:33:49;4.70;;;3.00;;
8536;SDS011;4306;50.210;10.628;2023-04-03T06:36:17;9.27;;;3.33;;
8536;SDS011;4306;50.210;10.628;2023-04-03T06:38:46;4.27;;;2.70;;
8536;SDS011;4306;50.210;10.628;2023-04-03T06:41:15;4.53;;;2.97;;
8536;SDS011;4306;50.210;10.628;2023-04-03T06:43:42;5.30;;;2.70;;
8536;SDS011;4306;50.210;10.628;2023-04-03T06:46:12;7.97;;;3.50;;
8536;SDS011;4306;50.210;10.628;2023-04-03T06:48:41;5.87;;;2.83;;
8536;SDS011;4306;50.210;10.628;2023-04-03T06:51:11;6.30;;;3.10;;
8536;SDS011;4306;50.210;10.628;2023-04-03T06:53:43;5.03;;;3.08;;
8536;SDS011;4306;50.210;10.628;2023-04-03T06:56:10;6.87;;;3.20;;
8536;SDS011;4306;50.210;10.628;2023-04-03T06:58:39;8.63;;;3.43;;
8536;SDS011;4306;50.210;10.628;2023-04-03T07:01:06;3.70;;;2.60;;
8536;SDS011;4306;50.210;10.628;2023-04-03T07:03:34;7.93;;;3.17;;
8536;SDS011;4306;50.210;10.628;2023-04-03T07:06:01;6.37;;;3.10;;
8536;SDS011;4306;50.210;10.628;2023-04-03T07:08:28;7.13;;;3.60;;
8536;SDS011;4306;50.210;10.628;2023-04-03T07:10:55;5.90;;;2.97;;
8536;SDS011;4306;50.210;10.628;2023-04-03T07:13:22;4.83;;;2.90;;
8536;SDS011;4306;50.210;10.628;2023-04-03T07:15:51;5.10;;;3.17;;
8536;SDS011;4306;50.210;10.628;2023-04-03T07:18:17;5.57;;;3.07;;
8536;SDS011;4306;50.210;10.628;2023-04-03T07:20:44;5.43;;;2.83;;
8536;SDS011;4306;50.210;10.628;2023-04-03T07:23:11;7.23;;;2.90;;
8536;SDS011;4306;50.210;10.628;2023-04-03T07:25:41;5.93;;;2.83;;
8536;SDS011;4306;50.210;10.628;2023-04-03T07:28:09;4.60;;;2.42;;
8536;SDS011;4306;50.210;10.628;2023-04-03T07:30:41;5.17;;;2.83;;
8536;SDS011;4306;50.210;10.628;2023-04-03T07:33:10;7.67;;;3.00;;
8536;SDS011;4306;50.210;10.628;2023-04-03T07:35:38;5.43;;;2.87;;
8536;SDS011;4306;50.210;10.628;2023-04-03T07:38:05;5.13;;;3.33;;
8536;SDS011;4306;50.210;10.628;2023-04-03T07:40:32;5.93;;;3.50;;
8536;SDS011;4306;50.210;10.628;2023-04-03T07:43:00;5.57;;;3.00;;
8536;SDS011;4306;50.210;10.628;2023-04-03T07:45:27;4.60;;;2.90;;
8536;SDS011;4306;50.210;10.628;2023-04-03T07:47:54;8.10;;;3.30;;
8536;SDS011;4306;50.210;10.628;2023-04-03T07:50:23;7.47;;;3.10;;
8536;SDS011;4306;50.210;10.628;2023-04-03T07:52:50;6.13;;;2.90;;
8536;SDS011;4306;50.210;10.628;2023-04-03T07:55:17;6.93;;;3.50;;
8536;SDS011;4306;50.210;10.628;2023-04-03T07:57:44;6.60;;;3.35;;
8536;SDS011;4306;50.210;10.628;2023-04-03T08:00:12;4.93;;;3.15;;
8536;SDS011;4306;50.210;10.628;2023-04-03T08:02:39;6.47;;;2.97;;
8536;SDS011;4306;50.210;10.628;2023-04-03T08:05:06;5.53;;;3.10;;
8536;SDS011;4306;50.210;10.628;2023-04-03T08:07:35;6.28;;;2.97;;
8536;SDS011;4306;50.210;10.628;2023-04-03T08:10:03;5.90;;;2.63;;
8536;SDS011;4306;50.210;10.628;2023-04-03T08:12:31;7.93;;;2.90;;
8536;SDS011;4306;50.210;10.628;2023-04-03T08:14:59;4.25;;;2.38;;
8536;SDS011;4306;50.210;10.628;2023-04-03T08:17:26;4.60;;;2.67;;
8536;SDS011;4306;50.210;10.628;2023-04-03T08:19:53;5.23;;;2.47;;
8536;SDS011;4306;50.210;10.628;2023-04-03T08:22:20;4.18;;;2.00;;
8536;SDS011;4306;50.210;10.628;2023-04-03T08:24:48;4.53;;;2.23;;
8536;SDS011;4306;50.210;10.628;2023-04-03T08:27:15;4.27;;;1.90;;
8536;SDS011;4306;50.210;10.628;2023-04-03T08:29:42;6.13;;;2.20;;
8536;SDS011;4306;50.210;10.628;2023-04-03T08:32:10;4.90;;;2.10;;
8536;SDS011;4306;50.210;10.628;2023-04-03T08:34:37;3.83;;;1.97;;
8536;SDS011;4306;50.210;10.628;2023-04-03T08:37:04;4.57;;;2.30;;
8536;SDS011;4306;50.210;10.628;2023-04-03T08:39:32;4.47;;;1.70;;
8536;SDS011;4306;50.210;10.628;2023-04-03T08:42:01;4.60;;;2.13;;
8536;SDS011;4306;50.210;10.628;2023-04-03T08:44:37;3.97;;;1.77;;
8536;SDS011;4306;50.210;10.628;2023-04-03T08:47:15;3.67;;;1.90;;
8536;SDS011;4306;50.210;10.628;2023-04-03T08:49:51;3.80;;;1.80;;
8536;SDS011;4306;50.210;10.628;2023-04-03T08:52:22;3.73;;;2.00;;
8536;SDS011;4306;50.210;10.628;2023-04-03T08:54:57;3.95;;;2.03;;
8536;SDS011;4306;50.210;10.628;2023-04-03T08:57:30;4.70;;;2.10;;
8536;SDS011;4306;50.210;10.628;2023-04-03T09:00:03;3.42;;;1.88;;
8536;SDS011;4306;50.210;10.628;2023-04-03T09:02:33;5.67;;;2.17;;
8536;SDS011;4306;50.210;10.628;2023-04-03T09:05:09;5.50;;;2.13;;
8536;SDS011;4306;50.210;10.628;2023-04-03T09:07:39;3.57;;;2.00;;
8536;SDS011;4306;50.210;10.628;2023-04-03T09:10:10;4.33;;;1.70;;
8536;SDS011;4306;50.210;10.628;2023-04-03T09:12:53;3.67;;;1.53;;
8536;SDS011;4306;50.210;10.628;2023-04-03T09:15:24;4.75;;;1.83;;
8536;SDS011;4306;50.210;10.628;2023-04-03T09:17:58;3.07;;;1.57;;
8536;SDS011;4306;50.210;10.628;2023-04-03T09:20:32;2.88;;;1.30;;
8536;SDS011;4306;50.210;10.628;2023-04-03T09:23:13;5.07;;;1.40;;
8536;SDS011;4306;50.210;10.628;2023-04-03T09:25:45;2.43;;;1.60;;
8536;SDS011;4306;50.210;10.628;2023-04-03T09:28:14;3.23;;;1.30;;
8536;SDS011;4306;50.210;10.628;2023-04-03T09:30:41;3.22;;;1.40;;
8536;SDS011;4306;50.210;10.628;2023-04-03T09:33:08;2.80;;;1.40;;
8536;SDS011;4306;50.210;10.628;2023-04-03T09:35:37;4.03;;;1.50;;
8536;SDS011;4306;50.210;10.628;2023-04-03T09:38:17;2.47;;;1.20;;
8536;SDS011;4306;50.210;10.628;2023-04-03T09:40:46;8.23;;;4.07;;
8536;SDS011;4306;50.210;10.628;2023-04-03T09:43:23;4.50;;;1.50;;
8536;SDS011;4306;50.210;10.628;2023-04-03T09:45:52;3.10;;;1.30;;
8536;SDS011;4306;50.210;10.628;2023-04-03T09:48:20;3.03;;;1.40;;
8536;SDS011;4306;50.210;10.628;2023-04-03T09:50:57;4.63;;;1.30;;
8536;SDS011;4306;50.210;10.628;2023-04-03T09:53:31;2.57;;;1.10;;
8536;SDS011;4306;50.210;10.628;2023-04-03T09:56:00;2.50;;;1.27;;
8536;SDS011;4306;50.210;10.628;2023-04-03T09:58:32;4.07;;;1.40;;
8536;SDS011;4306;50.210;10.628;2023-04-03T10:01:03;2.33;;;1.10;;
8536;SDS011;4306;50.210;10.628;2023-04-03T10:03:31;2.97;;;1.40;;
8536;SDS011;4306;50.210;10.628;2023-04-03T10:06:01;2.88;;;1.50;;
8536;SDS011;4306;50.210;10.628;2023-04-03T10:08:30;2.85;;;1.23;;
8536;SDS011;4306;50.210;10.628;2023-04-03T10:13:52;4.93;;;1.50;;
8536;SDS011;4306;50.210;10.628;2023-04-03T10:16:23;5.72;;;3.30;;
8536;SDS011;4306;50.210;10.628;2023-04-03T10:18:57;3.20;;;1.30;;
8536;SDS011;4306;50.210;10.628;2023-04-03T10:21:38;3.53;;;1.50;;
8536;SDS011;4306;50.210;10.628;2023-04-03T10:24:12;2.40;;;1.40;;
8536;SDS011;4306;50.210;10.628;2023-04-03T10:26:45;2.92;;;1.30;;
8536;SDS011;4306;50.210;10.628;2023-04-03T10:29:27;2.92;;;1.10;;
8536;SDS011;4306;50.210;10.628;2023-04-03T10:32:11;2.70;;;1.30;;
8536;SDS011;4306;50.210;10.628;2023-04-03T10:34:53;2.97;;;1.42;;
8536;SDS011;4306;50.210;10.628;2023-04-03T10:37:26;2.83;;;1.33;;
8536;SDS011;4306;50.210;10.628;2023-04-03T10:40:02;2.90;;;1.20;;
8536;SDS011;4306;50.210;10.628;2023-04-03T10:42:42;2.28;;;1.27;;
8536;SDS011;4306;50.210;10.628;2023-04-03T10:45:20;3.90;;;1.23;;
8536;SDS011;4306;50.210;10.628;2023-04-03T10:47:53;1.95;;;1.20;;
8536;SDS011;4306;50.210;10.628;2023-04-03T10:50:39;3.17;;;1.50;;
8536;SDS011;4306;50.210;10.628;2023-04-03T10:53:17;3.72;;;1.63;;
8536;SDS011;4306;50.210;10.628;2023-04-03T10:55:52;2.92;;;1.40;;
8536;SDS011;4306;50.210;10.628;2023-04-03T10:58:29;4.80;;;1.50;;
8536;SDS011;4306;50.210;10.628;2023-04-03T11:01:05;2.15;;;1.42;;
8536;SDS011;4306;50.210;10.628;2023-04-03T11:03:35;4.25;;;1.85;;
8536;SDS011;4306;50.210;10.628;2023-04-03T11:06:06;4.32;;;1.92;;
8536;SDS011;4306;50.210;10.628;2023-04-03T11:08:37;3.65;;;1.55;;
8536;SDS011;4306;50.210;10.628;2023-04-03T11:11:09;2.60;;;1.40;;
8536;SDS011;4306;50.210;10.628;2023-04-03T11:13:41;2.78;;;1.27;;
8536;SDS011;4306;50.210;10.628;2023-04-03T11:16:13;2.80;;;1.30;;
8536;SDS011;4306;50.210;10.628;2023-04-03T11:18:45;4.45;;;1.60;;
8536;SDS011;4306;50.210;10.628;2023-04-03T11:21:17;4.05;;;1.73;;
8536;SDS011;4306;50.210;10.628;2023-04-03T11:23:47;3.42;;;1.13;;
8536;SDS011;4306;50.210;10.628;2023-04-03T11:26:15;2.50;;;1.63;;
8536;SDS011;4306;50.210;10.628;2023-04-03T11:28:44;2.95;;;1.52;;
8536;SDS011;4306;50.210;10.628;2023-04-03T11:34:03;5.28;;;1.42;;
8536;SDS011;4306;50.210;10.628;2023-04-03T11:36:40;3.38;;;1.42;;
8536;SDS011;4306;50.210;10.628;2023-04-03T11:39:14;2.90;;;1.40;;
8536;SDS011;4306;50.210;10.628;2023-04-03T11:41:48;2.50;;;1.15;;
8536;SDS011;4306;50.210;10.628;2023-04-03T11:44:27;3.85;;;1.58;;
8536;SDS011;4306;50.210;10.628;2023-04-03T11:46:59;4.18;;;1.40;;
8536;SDS011;4306;50.210;10.628;2023-04-03T11:55:41;2.17;;;1.27;;
8536;SDS011;4306;50.210;10.628;2023-04-03T11:58:11;2.95;;;1.20;;
8536;SDS011;4306;50.210;10.628;2023-04-03T12:00:47;3.78;;;1.40;;
8536;SDS011;4306;50.210;10.628;2023-04-03T12:09:24;3.90;;;1.77;;
8536;SDS011;4306;50.210;10.628;2023-04-03T12:11:52;2.83;;;1.50;;
8536;SDS011;4306;50.210;10.628;2023-04-03T12:14:21;5.78;;;1.75;;
8536;SDS011;4306;50.210;10.628;2023-04-03T12:16:50;2.97;;;1.30;;
8536;SDS011;4306;50.210;10.628;2023-04-03T12:22:11;3.17;;;1.27;;
8536;SDS011;4306;50.210;10.628;2023-04-03T12:24:46;5.70;;;1.38;;
8536;SDS011;4306;50.210;10.628;2023-04-03T12:27:33;4.13;;;1.15;;
8536;SDS011;4306;50.210;10.628;2023-04-03T12:30:24;11.32;;;2.38;;
8536;SDS011;4306;50.210;10.628;2023-04-03T12:33:04;3.63;;;1.40;;
8536;SDS011;4306;50.210;10.628;2023-04-03T12:35:47;2.55;;;1.27;;
8536;SDS011;4306;50.210;10.628;2023-04-03T12:38:32;2.55;;;1.33;;
8536;SDS011;4306;50.210;10.628;2023-04-03T12:41:18;1.80;;;1.02;;
8536;SDS011;4306;50.210;10.628;2023-04-03T12:43:58;5.97;;;2.35;;
8536;SDS011;4306;50.210;10.628;2023-04-03T12:46:35;4.07;;;1.60;;
8536;SDS011;4306;50.210;10.628;2023-04-03T12:49:13;2.30;;;1.30;;
8536;SDS011;4306;50.210;10.628;2023-04-03T12:51:59;2.47;;;1.50;;
8536;SDS011;4306;50.210;10.628;2023-04-03T12:54:29;2.28;;;0.90;;
8536;SDS011;4306;50.210;10.628;2023-04-03T12:57:20;3.63;;;1.02;;
8536;SDS011;4306;50.210;10.628;2023-04-03T12:59:48;4.57;;;1.40;;
8536;SDS011;4306;50.210;10.628;2023-04-03T13:02:17;3.97;;;1.40;;
8536;SDS011;4306;50.210;10.628;2023-04-03T13:04:49;3.28;;;1.20;;
8536;SDS011;4306;50.210;10.628;2023-04-03T13:07:20;2.80;;;1.13;;
8536;SDS011;4306;50.210;10.628;2023-04-03T13:09:57;3.95;;;1.15;;
8536;SDS011;4306;50.210;10.628;2023-04-03T13:12:27;2.13;;;1.10;;
8536;SDS011;4306;50.210;10.628;2023-04-03T13:14:55;3.28;;;1.13;;
8536;SDS011;4306;50.210;10.628;2023-04-03T13:17:23;3.65;;;1.10;;
8536;SDS011;4306;50.210;10.628;2023-04-03T13:19:53;2.03;;;1.13;;
8536;SDS011;4306;50.210;10.628;2023-04-03T13:22:25;2.55;;;1.00;;
8536;SDS011;4306;50.210;10.628;2023-04-03T13:24:56;1.88;;;1.00;;
8536;SDS011;4306;50.210;10.628;2023-04-03T13:27:27;3.70;;;1.10;;
8536;SDS011;4306;50.210;10.628;2023-04-03T13:29:57;3.90;;;1.05;;
8536;SDS011;4306;50.210;10.628;2023-04-03T13:32:27;3.80;;;1.30;;
8536;SDS011;4306;50.210;10.628;2023-04-03T13:34:57;3.50;;;1.35;;
8536;SDS011;4306;50.210;10.628;2023-04-03T13:37:25;10.70;;;5.65;;
8536;SDS011;4306;50.210;10.628;2023-04-03T13:39:59;2.30;;;1.17;;
8536;SDS011;4306;50.210;10.628;2023-04-03T13:42:30;2.08;;;1.10;;
8536;SDS011;4306;50.210;10.628;2023-04-03T13:45:17;5.28;;;1.58;;
8536;SDS011;4306;50.210;10.628;2023-04-03T13:47:46;2.50;;;1.10;;
8536;SDS011;4306;50.210;10.628;2023-04-03T13:50:16;2.97;;;1.13;;
8536;SDS011;4306;50.210;10.628;2023-04-03T13:52:45;3.10;;;1.20;;
8536;SDS011;4306;50.210;10.628;2023-04-03T13:55:18;2.78;;;0.98;;
8536;SDS011;4306;50.210;10.628;2023-04-03T13:57:52;3.03;;;1.00;;
8536;SDS011;4306;50.210;10.628;2023-04-03T14:00:33;5.10;;;1.30;;
8536;SDS011;4306;50.210;10.628;2023-04-03T14:03:11;2.38;;;1.10;;
8536;SDS011;4306;50.210;10.628;2023-04-03T14:05:38;5.03;;;1.50;;
8536;SDS011;4306;50.210;10.628;2023-04-03T14:08:05;3.47;;;1.40;;
8536;SDS011;4306;50.210;10.628;2023-04-03T14:10:32;2.58;;;0.98;;
8536;SDS011;4306;50.210;10.628;2023-04-03T14:13:01;2.55;;;1.17;;
8536;SDS011;4306;50.210;10.628;2023-04-03T14:15:29;2.35;;;1.15;;
8536;SDS011;4306;50.210;10.628;2023-04-03T14:17:57;3.15;;;1.15;;
8536;SDS011;4306;50.210;10.628;2023-04-03T14:20:26;3.80;;;1.70;;
8536;SDS011;4306;50.210;10.628;2023-04-03T14:22:53;2.67;;;1.30;;
8536;SDS011;4306;50.210;10.628;2023-04-03T14:25:20;4.78;;;1.67;;
8536;SDS011;4306;50.210;10.628;2023-04-03T14:27:49;4.18;;;1.42;;
8536;SDS011;4306;50.210;10.628;2023-04-03T14:30:21;3.22;;;1.67;;
8536;SDS011;4306;50.210;10.628;2023-04-03T14:32:50;3.38;;;1.42;;
8536;SDS011;4306;50.210;10.628;2023-04-03T14:35:17;2.17;;;1.00;;
8536;SDS011;4306;50.210;10.628;2023-04-03T14:37:45;2.58;;;1.10;;
8536;SDS011;4306;50.210;10.628;2023-04-03T14:40:13;2.65;;;1.13;;
8536;SDS011;4306;50.210;10.628;2023-04-03T14:42:41;2.53;;;1.17;;
8536;SDS011;4306;50.210;10.628;2023-04-03T14:45:09;2.10;;;1.20;;
8536;SDS011;4306;50.210;10.628;2023-04-03T14:47:40;3.30;;;1.20;;
8536;SDS011;4306;50.210;10.628;2023-04-03T14:50:12;4.40;;;1.10;;
8536;SDS011;4306;50.210;10.628;2023-04-03T14:52:42;4.30;;;1.27;;
8536;SDS011;4306;50.210;10.628;2023-04-03T14:55:11;4.18;;;1.15;;
8536;SDS011;4306;50.210;10.628;2023-04-03T14:57:40;3.60;;;1.42;;
8536;SDS011;4306;50.210;10.628;2023-04-03T15:00:07;1.73;;;1.00;;
8536;SDS011;4306;50.210;10.628;2023-04-03T15:02:38;3.25;;;1.38;;
8536;SDS011;4306;50.210;10.628;2023-04-03T15:05:07;4.07;;;1.10;;
8536;SDS011;4306;50.210;10.628;2023-04-03T15:07:37;3.00;;;1.13;;
8536;SDS011;4306;50.210;10.628;2023-04-03T15:10:15;2.55;;;1.20;;
8536;SDS011;4306;50.210;10.628;2023-04-03T15:12:43;3.00;;;1.35;;
8536;SDS011;4306;50.210;10.628;2023-04-03T15:15:11;2.60;;;1.20;;
8536;SDS011;4306;50.210;10.628;2023-04-03T15:17:39;4.20;;;1.45;;
8536;SDS011;4306;50.210;10.628;2023-04-03T15:20:11;2.65;;;1.20;;
8536;SDS011;4306;50.210;10.628;2023-04-03T15:22:40;3.28;;;1.23;;
8536;SDS011;4306;50.210;10.628;2023-04-03T15:25:07;3.42;;;1.25;;
8536;SDS011;4306;50.210;10.628;2023-04-03T15:27:35;2.63;;;1.33;;
8536;SDS011;4306;50.210;10.628;2023-04-03T15:30:02;2.47;;;1.58;;
8536;SDS011;4306;50.210;10.628;2023-04-03T15:32:29;2.42;;;1.15;;
8536;SDS011;4306;50.210;10.628;2023-04-03T15:34:57;2.47;;;1.20;;
8536;SDS011;4306;50.210;10.628;2023-04-03T15:37:24;8.73;;;3.05;;